Kings Canyon Natl Park (south), California
Current Conditions -  °F | °C
As of 4:56 PM on Friday 24 Oct 2014 (Local Time) from KBIH Reporting Station
Clear Clear  
Wind Chill: 81°   Ceiling: Unl
Heat Index: 81°   Visibility: 10mi
Dew Point: 19°   Wind: 21mph
Humidity: 10%   Direction: 160°SSE
Pressure: 29.95"   Gusts: 30mph
Location:  36.8°N, 118.5°W
Report Text: KBIH 242356Z AUTO 16018G26KT 10SM CLR 27/M07 A2995 RMK AO2 PK WND 17030/2300 SLP109 T02721072 10283 20194 56010
Loading
Personal Weather Stations






























Interactive Weather Map
Tropical Storm Tracking
New forecast layout! Learn more

10-Day Weather Forecast

Advertisements
Track Severe Weather on mobile